Whigham, Georgia
Current Conditions -  °F | °C
As of 6:15 AM on Wednesday 26 Nov 2014 (Local Time) from KBGE Reporting Station
Scattered Clouds Scattered Clouds  
Wind Chill: 50°   Ceiling: Unl
Heat Index: 50°   Visibility: 10mi
Dew Point: 48°   Wind: 6mph
Humidity: 94%   Direction: 270°W
Pressure: 30.09"   Gusts: NA
Location:  30.88°N, 84.32°W
Report Text: KBGE 261115Z AUTO 27005KT 10SM SCT090 10/09 A3009 RMK AO2
Loading
Personal Weather Stations






























Interactive Weather Map New forecast layout! Learn more

10-Day Weather Forecast

Advertisements
Track Severe Weather on mobile